createdAt,value
2019-01-18T00:00:27.262Z,1000.60
2019-01-18T00:01:27.229Z,1000.57
2019-01-18T00:02:27.242Z,1000.62
2019-01-18T00:03:27.209Z,1000.64
2019-01-18T00:04:27.205Z,1000.62
2019-01-18T00:05:27.210Z,1000.66
2019-01-18T00:06:27.179Z,1000.69
2019-01-18T00:07:27.169Z,1000.68
2019-01-18T00:08:27.181Z,1000.70
2019-01-18T00:09:27.149Z,1000.72
2019-01-18T00:10:27.135Z,1000.73
2019-01-18T00:11:27.127Z,1000.67
2019-01-18T00:12:27.121Z,1000.77
2019-01-18T00:13:27.117Z,1000.68
2019-01-18T00:14:27.097Z,1000.79
2019-01-18T00:15:27.096Z,1000.77
2019-01-18T00:16:27.068Z,1000.79
2019-01-18T00:17:27.058Z,1000.79
2019-01-18T00:18:27.050Z,1000.65
2019-01-18T00:19:27.049Z,1000.77
2019-01-18T00:20:27.066Z,1000.81
2019-01-18T00:21:27.022Z,1000.77
2019-01-18T00:22:27.010Z,1000.79
2019-01-18T00:23:26.994Z,1000.83
2019-01-18T00:24:26.979Z,1000.77
2019-01-18T00:25:26.975Z,1000.76
2019-01-18T00:26:26.983Z,1000.78
2019-01-18T00:27:26.959Z,1000.81
2019-01-18T00:28:26.938Z,1000.78
2019-01-18T00:29:29.672Z,1000.84
2019-01-18T00:30:26.939Z,1000.91
2019-01-18T00:31:27.120Z,1000.84
2019-01-18T00:32:26.911Z,1000.89
2019-01-18T00:33:26.888Z,1000.89
2019-01-18T00:34:26.882Z,1000.94
2019-01-18T00:35:26.875Z,1000.91
2019-01-18T00:36:26.883Z,1001.02
2019-01-18T00:37:26.845Z,1000.92
2019-01-18T00:38:26.837Z,1000.98
2019-01-18T00:39:26.830Z,1001.00
2019-01-18T00:40:26.818Z,1001.00
2019-01-18T00:41:26.820Z,1000.95
2019-01-18T00:42:26.805Z,1001.03
2019-01-18T00:43:26.782Z,1001.01
2019-01-18T00:44:26.788Z,1001.03
2019-01-18T00:45:26.762Z,1001.10
2019-01-18T00:46:26.774Z,1001.05
2019-01-18T00:47:26.736Z,1001.05
2019-01-18T00:48:26.730Z,1001.05
2019-01-18T00:49:26.724Z,1001.10
2019-01-18T00:50:26.763Z,1001.07
2019-01-18T00:51:26.722Z,1001.16
2019-01-18T00:52:26.680Z,1001.14
2019-01-18T00:53:26.670Z,1001.14
2019-01-18T00:54:26.670Z,1001.17
2019-01-18T00:55:26.669Z,1001.23
2019-01-18T00:56:26.680Z,1001.25
2019-01-18T00:57:26.632Z,1001.31
2019-01-18T00:58:26.616Z,1001.34
2019-01-18T00:59:26.626Z,1001.23
2019-01-18T01:00:26.604Z,1001.21
2019-01-18T01:01:26.642Z,1001.27
2019-01-18T01:02:26.600Z,1001.26
2019-01-18T01:03:26.566Z,1001.28
2019-01-18T01:04:26.565Z,1001.34
2019-01-18T01:05:26.574Z,1001.36
2019-01-18T01:06:26.538Z,1001.34
2019-01-18T01:07:26.558Z,1001.35
2019-01-18T01:08:26.522Z,1001.35
2019-01-18T01:09:26.503Z,1001.45
2019-01-18T01:10:26.559Z,1001.43
2019-01-18T01:11:26.498Z,1001.43
2019-01-18T01:12:26.492Z,1001.50
2019-01-18T01:13:26.475Z,1001.61
2019-01-18T01:14:26.449Z,1001.64
2019-01-18T01:15:26.464Z,1001.70
2019-01-18T01:16:26.426Z,1001.69
2019-01-18T01:17:26.446Z,1001.71
2019-01-18T01:18:26.418Z,1001.68
2019-01-18T01:19:26.396Z,1001.80
2019-01-18T01:20:26.388Z,1001.90
2019-01-18T01:21:26.395Z,1001.99
2019-01-18T01:22:26.382Z,1002.06
2019-01-18T01:23:26.394Z,1002.15
2019-01-18T01:24:26.358Z,1002.14
2019-01-18T01:25:26.334Z,1002.28
2019-01-18T01:26:26.326Z,1002.22
2019-01-18T01:27:26.333Z,1002.33
2019-01-18T01:28:26.309Z,1002.42
2019-01-18T01:29:26.298Z,1002.40
2019-01-18T01:30:26.293Z,1002.48
2019-01-18T01:31:26.267Z,1002.53
2019-01-18T01:32:26.278Z,1002.62
2019-01-18T01:33:26.252Z,1002.67
2019-01-18T01:34:26.239Z,1002.75
2019-01-18T01:35:26.270Z,1002.75
2019-01-18T01:36:26.228Z,1002.71
2019-01-18T01:37:26.234Z,1002.86
2019-01-18T01:38:26.192Z,1002.92
2019-01-18T01:39:26.192Z,1002.86
2019-01-18T01:40:26.171Z,1002.96
2019-01-18T01:41:26.179Z,1002.95
2019-01-18T01:42:26.179Z,1003.10
2019-01-18T01:43:26.144Z,1003.05
2019-01-18T01:44:26.160Z,1003.17
2019-01-18T01:45:26.121Z,1003.11
2019-01-18T01:46:26.116Z,1003.14
2019-01-18T01:47:26.138Z,1003.26
2019-01-18T01:48:26.089Z,1003.26
2019-01-18T01:49:26.084Z,1003.28
2019-01-18T01:50:26.071Z,1003.30
2019-01-18T01:51:26.066Z,1003.40
2019-01-18T01:52:26.050Z,1003.35
2019-01-18T01:53:26.075Z,1003.36
2019-01-18T01:54:26.025Z,1003.51
2019-01-18T01:55:26.025Z,1003.45
2019-01-18T01:56:26.008Z,1003.48
2019-01-18T01:57:25.994Z,1003.50
2019-01-18T01:58:26.009Z,1003.50
2019-01-18T01:59:25.978Z,1003.55
2019-01-18T02:00:25.969Z,1003.52
2019-01-18T02:01:25.955Z,1003.63
2019-01-18T02:02:25.941Z,1003.67
2019-01-18T02:03:25.965Z,1003.72
2019-01-18T02:04:35.014Z,1003.70
2019-01-18T02:05:25.924Z,1003.80
2019-01-18T02:06:25.896Z,1003.80
2019-01-18T02:07:25.888Z,1003.80
2019-01-18T02:08:25.905Z,1003.77
2019-01-18T02:09:25.866Z,1003.83
2019-01-18T02:10:25.866Z,1003.82
2019-01-18T02:11:25.862Z,1003.82
2019-01-18T02:12:25.853Z,1003.90
2019-01-18T02:13:25.855Z,1003.85
2019-01-18T02:14:25.867Z,1003.89
2019-01-18T02:15:25.810Z,1003.92
2019-01-18T02:16:25.813Z,1003.91
2019-01-18T02:17:25.784Z,1003.93
2019-01-18T02:18:25.814Z,1004.04
2019-01-18T02:19:25.763Z,1003.94
2019-01-18T02:20:25.762Z,1003.91
2019-01-18T02:21:25.742Z,1004.04
2019-01-18T02:22:25.753Z,1004.01
2019-01-18T02:23:25.756Z,1004.04
2019-01-18T02:24:25.716Z,1004.06
2019-01-18T02:25:25.728Z,1004.12
2019-01-18T02:26:25.686Z,1004.13
2019-01-18T02:27:25.681Z,1004.15
2019-01-18T02:28:25.726Z,1004.18
2019-01-18T02:29:25.679Z,1004.22
2019-01-18T02:30:25.663Z,1004.18
2019-01-18T02:31:25.638Z,1004.25
2019-01-18T02:32:25.625Z,1004.26
2019-01-18T02:33:25.620Z,1004.35
2019-01-18T02:34:25.633Z,1004.31
2019-01-18T02:35:25.594Z,1004.29
2019-01-18T02:36:25.595Z,1004.43
2019-01-18T02:37:25.572Z,1004.40
2019-01-18T02:38:25.563Z,1004.45
2019-01-18T02:39:25.584Z,1004.43
2019-01-18T02:40:25.555Z,1004.41
2019-01-18T02:41:25.546Z,1004.54
2019-01-18T02:42:25.528Z,1004.54
2019-01-18T02:43:25.516Z,1004.58
2019-01-18T02:44:25.618Z,1004.60
2019-01-18T02:45:25.504Z,1004.65
2019-01-18T02:46:25.480Z,1004.65
2019-01-18T02:47:25.476Z,1004.68
2019-01-18T02:48:25.464Z,1004.64
2019-01-18T02:49:25.452Z,1004.72
2019-01-18T02:50:26.013Z,1004.69
2019-01-18T02:51:25.452Z,1004.70
2019-01-18T02:52:25.419Z,1004.74
2019-01-18T02:53:25.405Z,1004.69
2019-01-18T02:54:25.422Z,1004.77
2019-01-18T02:55:29.008Z,1004.75
2019-01-18T02:56:25.380Z,1004.79
2019-01-18T02:57:25.374Z,1004.79
2019-01-18T02:58:25.382Z,1004.87
2019-01-18T02:59:25.414Z,1004.91
2019-01-18T03:00:25.373Z,1004.84
2019-01-18T03:01:25.324Z,1004.87
2019-01-18T03:02:25.322Z,1004.90
2019-01-18T03:03:25.320Z,1004.94
2019-01-18T03:04:25.328Z,1004.92
2019-01-18T03:05:25.284Z,1004.99
2019-01-18T03:06:25.290Z,1005.00
2019-01-18T03:07:25.256Z,1005.07
2019-01-18T03:08:25.254Z,1005.06
2019-01-18T03:09:25.298Z,1005.19
2019-01-18T03:10:25.224Z,1005.14
2019-01-18T03:11:25.221Z,1005.20
2019-01-18T03:12:25.222Z,1005.15
2019-01-18T03:13:25.198Z,1005.16
2019-01-18T03:14:26.132Z,1005.27
2019-01-18T03:15:25.206Z,1005.29
2019-01-18T03:16:25.174Z,1005.31
2019-01-18T03:17:25.171Z,1005.40
2019-01-18T03:18:25.160Z,1005.37
2019-01-18T03:19:25.128Z,1005.40
2019-01-18T03:20:25.179Z,1005.39
2019-01-18T03:21:25.116Z,1005.38
2019-01-18T03:22:25.153Z,1005.48
2019-01-18T03:23:25.092Z,1005.43
2019-01-18T03:24:25.078Z,1005.45
2019-01-18T03:25:25.120Z,1005.51
2019-01-18T03:26:25.084Z,1005.59
2019-01-18T03:27:25.075Z,1005.56
2019-01-18T03:28:25.050Z,1005.66
2019-01-18T03:29:25.043Z,1005.61
2019-01-18T03:30:25.083Z,1005.72
2019-01-18T03:31:25.015Z,1005.69
2019-01-18T03:32:25.014Z,1005.66
2019-01-18T03:33:25.017Z,1005.77
2019-01-18T03:34:24.970Z,1005.82
2019-01-18T03:35:25.004Z,1005.79
2019-01-18T03:36:25.040Z,1005.84
2019-01-18T03:37:24.968Z,1005.91
2019-01-18T03:38:24.942Z,1005.86
2019-01-18T03:39:24.926Z,1005.86
2019-01-18T03:40:24.964Z,1005.89
2019-01-18T03:41:24.917Z,1005.84
2019-01-18T03:42:24.884Z,1005.91
2019-01-18T03:43:24.909Z,1005.93
2019-01-18T03:44:24.886Z,1005.86
2019-01-18T03:45:24.968Z,1005.97
2019-01-18T03:46:24.853Z,1005.99
2019-01-18T03:47:24.869Z,1006.01
2019-01-18T03:48:24.853Z,1006.00
2019-01-18T03:49:24.904Z,1006.05
2019-01-18T03:50:24.840Z,1006.03
2019-01-18T03:51:24.791Z,1006.10
2019-01-18T03:52:24.786Z,1006.06
2019-01-18T03:53:24.774Z,1006.12
2019-01-18T03:54:24.824Z,1006.09
2019-01-18T03:55:24.783Z,1006.13
2019-01-18T03:56:24.749Z,1006.19
2019-01-18T03:57:24.735Z,1006.20
2019-01-18T03:58:24.720Z,1006.19
2019-01-18T03:59:24.745Z,1006.22
2019-01-18T04:00:26.260Z,1006.35
2019-01-18T04:01:24.723Z,1006.27
2019-01-18T04:02:24.677Z,1006.34
2019-01-18T04:03:24.668Z,1006.30
2019-01-18T04:04:24.655Z,1006.33
2019-01-18T04:05:24.654Z,1006.36
2019-01-18T04:06:24.668Z,1006.40
2019-01-18T04:07:24.625Z,1006.38
2019-01-18T04:08:24.624Z,1006.47
2019-01-18T04:09:24.604Z,1006.48
2019-01-18T04:10:24.638Z,1006.50
2019-01-18T04:11:24.601Z,1006.58
2019-01-18T04:12:24.585Z,1006.52
2019-01-18T04:13:24.567Z,1006.52
2019-01-18T04:14:25.934Z,1006.59
2019-01-18T04:15:24.551Z,1006.57
2019-01-18T04:16:24.569Z,1006.66
2019-01-18T04:17:24.526Z,1006.67
2019-01-18T04:18:24.512Z,1006.62
2019-01-18T04:19:24.501Z,1006.65
2019-01-18T04:20:24.490Z,1006.72
2019-01-18T04:21:24.497Z,1006.69
2019-01-18T04:22:24.469Z,1006.75
2019-01-18T04:23:24.459Z,1006.79
2019-01-18T04:24:24.451Z,1006.76
2019-01-18T04:25:24.457Z,1006.77
2019-01-18T04:26:24.488Z,1006.88
2019-01-18T04:27:24.433Z,1006.79
2019-01-18T04:28:24.405Z,1006.84
2019-01-18T04:29:24.424Z,1006.86
2019-01-18T04:30:24.421Z,1006.82
2019-01-18T04:31:24.417Z,1006.86
2019-01-18T04:32:24.370Z,1006.84
2019-01-18T04:33:24.351Z,1006.90
2019-01-18T04:34:24.342Z,1006.91
2019-01-18T04:35:24.367Z,1006.95
2019-01-18T04:36:24.366Z,1006.97
2019-01-18T04:37:24.391Z,1007.00
2019-01-18T04:38:24.301Z,1007.05
2019-01-18T04:39:24.291Z,1007.11
2019-01-18T04:40:24.280Z,1007.10
2019-01-18T04:41:24.279Z,1007.06
2019-01-18T04:42:24.298Z,1007.11
2019-01-18T04:43:24.258Z,1007.09
2019-01-18T04:44:24.241Z,1007.13
2019-01-18T04:45:24.256Z,1007.12
2019-01-18T04:46:24.213Z,1007.11
2019-01-18T04:47:24.250Z,1007.11
2019-01-18T04:48:24.198Z,1007.20
2019-01-18T04:49:24.185Z,1007.20
2019-01-18T04:50:24.173Z,1007.10
2019-01-18T04:51:24.158Z,1007.21
2019-01-18T04:52:24.177Z,1007.15
2019-01-18T04:53:24.166Z,1007.15
2019-01-18T04:54:24.135Z,1007.18
2019-01-18T04:55:24.130Z,1007.09
2019-01-18T04:56:24.111Z,1007.11
2019-01-18T04:57:24.148Z,1007.13
2019-01-18T04:58:24.093Z,1007.16
2019-01-18T04:59:24.087Z,1007.15
2019-01-18T05:00:24.077Z,1007.26
2019-01-18T05:01:24.069Z,1007.28
2019-01-18T05:02:24.041Z,1007.28
2019-01-18T05:03:24.063Z,1007.31
2019-01-18T05:04:24.037Z,1007.33
2019-01-18T05:05:24.012Z,1007.41
2019-01-18T05:06:24.000Z,1007.41
2019-01-18T05:07:24.097Z,1007.46
2019-01-18T05:08:24.002Z,1007.46
2019-01-18T05:09:23.979Z,1007.50
2019-01-18T05:10:23.969Z,1007.47
2019-01-18T05:11:23.956Z,1007.54
2019-01-18T05:12:23.941Z,1007.63
2019-01-18T05:13:23.951Z,1007.54
2019-01-18T05:14:23.949Z,1007.59
2019-01-18T05:15:23.919Z,1007.66
2019-01-18T05:16:23.915Z,1007.70
2019-01-18T05:17:23.886Z,1007.76
2019-01-18T05:18:23.918Z,1007.73
2019-01-18T05:19:23.870Z,1007.82
2019-01-18T05:20:23.859Z,1007.87
2019-01-18T05:21:23.847Z,1007.85
2019-01-18T05:22:23.845Z,1007.89
2019-01-18T05:23:23.875Z,1007.98
2019-01-18T05:24:23.821Z,1007.94
2019-01-18T05:25:23.807Z,1007.99
2019-01-18T05:26:23.797Z,1008.09
2019-01-18T05:27:23.804Z,1008.14
2019-01-18T05:28:23.798Z,1008.07
2019-01-18T05:29:23.768Z,1008.07
2019-01-18T05:30:23.757Z,1008.09
2019-01-18T05:31:23.756Z,1008.12
2019-01-18T05:32:23.729Z,1008.14
2019-01-18T05:33:23.766Z,1008.10
2019-01-18T05:34:23.723Z,1008.20
2019-01-18T05:35:23.699Z,1008.24
2019-01-18T05:36:23.699Z,1008.29
2019-01-18T05:37:23.695Z,1008.27
2019-01-18T05:38:23.712Z,1008.28
2019-01-18T05:39:23.676Z,1008.40
2019-01-18T05:40:23.679Z,1008.45
2019-01-18T05:41:23.637Z,1008.56
2019-01-18T05:42:23.626Z,1008.56
2019-01-18T05:43:23.641Z,1008.52
2019-01-18T05:44:23.603Z,1008.64
2019-01-18T05:45:23.612Z,1008.61
2019-01-18T05:46:23.588Z,1008.67
2019-01-18T05:47:23.578Z,1008.59
2019-01-18T05:48:23.587Z,1008.69
2019-01-18T05:49:23.549Z,1008.69
2019-01-18T05:50:23.543Z,1008.66
2019-01-18T05:51:23.541Z,1008.73
2019-01-18T05:52:23.528Z,1008.76
2019-01-18T05:53:23.538Z,1008.74
2019-01-18T05:54:23.505Z,1008.81
2019-01-18T05:55:23.491Z,1008.83
2019-01-18T05:56:23.487Z,1008.85
2019-01-18T05:57:23.481Z,1008.86
2019-01-18T05:58:23.495Z,1008.92
2019-01-18T05:59:23.449Z,1008.93
2019-01-18T06:00:23.446Z,1008.96
2019-01-18T06:01:23.570Z,1009.04
2019-01-18T06:02:23.419Z,1009.02
2019-01-18T06:03:23.403Z,1009.21
2019-01-18T06:04:23.423Z,1009.20
2019-01-18T06:05:23.377Z,1009.19
2019-01-18T06:06:23.371Z,1009.17
2019-01-18T06:07:23.361Z,1009.18
2019-01-18T06:08:23.353Z,1009.21
2019-01-18T06:09:23.359Z,1009.19
2019-01-18T06:10:23.343Z,1009.16
2019-01-18T06:11:23.331Z,1009.27
2019-01-18T06:12:23.384Z,1009.24
2019-01-18T06:13:23.337Z,1009.26
2019-01-18T06:14:23.330Z,1009.17
2019-01-18T06:15:23.336Z,1009.25
2019-01-18T06:16:23.307Z,1009.29
2019-01-18T06:17:23.317Z,1009.21
2019-01-18T06:18:23.313Z,1009.34
2019-01-18T06:19:23.313Z,1009.34
2019-01-18T06:20:23.251Z,1009.41
2019-01-18T06:21:23.266Z,1009.44
2019-01-18T06:22:23.251Z,1009.45
2019-01-18T06:23:25.231Z,1009.42
2019-01-18T06:24:23.212Z,1009.48
2019-01-18T06:25:23.229Z,1009.53
2019-01-18T06:26:23.192Z,1009.47
2019-01-18T06:27:23.255Z,1009.58
2019-01-18T06:28:23.159Z,1009.56
2019-01-18T06:29:23.173Z,1009.67
2019-01-18T06:30:23.117Z,1009.65
2019-01-18T06:31:23.121Z,1009.68
2019-01-18T06:32:23.097Z,1009.68
2019-01-18T06:33:23.095Z,1009.71
2019-01-18T06:34:23.168Z,1009.73
2019-01-18T06:35:23.084Z,1009.74
2019-01-18T06:36:23.060Z,1009.76
2019-01-18T06:37:23.069Z,1009.84
2019-01-18T06:38:23.044Z,1009.88
2019-01-18T06:39:23.071Z,1009.82
2019-01-18T06:40:23.054Z,1009.92
2019-01-18T06:41:23.007Z,1009.93
2019-01-18T06:42:23.025Z,1009.95
2019-01-18T06:43:22.987Z,1009.96
2019-01-18T06:44:22.999Z,1010.06
2019-01-18T06:45:23.021Z,1010.10
2019-01-18T06:46:22.964Z,1010.14
2019-01-18T06:47:29.993Z,1010.15
2019-01-18T06:48:37.288Z,1010.19
2019-01-18T06:49:23.050Z,1010.23
2019-01-18T06:50:22.929Z,1010.28
2019-01-18T06:51:22.902Z,1010.39
2019-01-18T06:52:23.531Z,1010.41
2019-01-18T06:55:50.187Z,1010.38
2019-01-18T06:56:05.961Z,1010.38
2019-01-18T06:57:16.492Z,1010.42
2019-01-18T06:58:31.465Z,1010.40
2019-01-18T06:59:04.746Z,1010.48
2019-01-18T07:00:04.783Z,1010.53
2019-01-18T07:01:08.480Z,1010.54
2019-01-18T07:02:04.739Z,1010.49
2019-01-18T07:03:07.433Z,1010.57
2019-01-18T07:04:04.704Z,1010.55
2019-01-18T07:05:20.937Z,1010.58
2019-01-18T07:06:05.644Z,1010.68
2019-01-18T07:07:04.750Z,1010.66
2019-01-18T07:08:07.396Z,1010.65
2019-01-18T07:09:04.687Z,1010.67
2019-01-18T07:10:04.663Z,1010.68
2019-01-18T07:11:04.763Z,1010.75
2019-01-18T07:12:04.701Z,1010.70
2019-01-18T07:13:04.647Z,1010.73
2019-01-18T07:14:04.603Z,1010.79
2019-01-18T07:15:04.592Z,1010.85
2019-01-18T07:16:04.610Z,1010.82
2019-01-18T07:17:04.562Z,1010.90
2019-01-18T07:18:04.555Z,1010.88
2019-01-18T07:19:04.563Z,1010.92
2019-01-18T07:20:04.546Z,1010.95
2019-01-18T07:21:04.551Z,1010.92
2019-01-18T07:22:04.509Z,1010.91
2019-01-18T07:23:04.500Z,1011.09
2019-01-18T07:24:04.494Z,1011.08
2019-01-18T07:25:04.491Z,1011.08
2019-01-18T07:26:04.609Z,1011.09
2019-01-18T07:27:06.564Z,1011.14
2019-01-18T07:28:04.532Z,1011.19
2019-01-18T07:29:04.440Z,1011.15
2019-01-18T07:30:04.422Z,1011.17
2019-01-18T07:31:04.605Z,1011.20
2019-01-18T07:32:04.451Z,1011.29
2019-01-18T07:33:04.476Z,1011.33
2019-01-18T07:34:04.446Z,1011.27
2019-01-18T07:35:04.431Z,1011.37
2019-01-18T07:36:04.652Z,1011.32
2019-01-18T07:37:04.411Z,1011.39
2019-01-18T07:38:06.416Z,1011.41
2019-01-18T07:39:07.428Z,1011.43
2019-01-18T07:40:04.401Z,1011.50
2019-01-18T07:41:04.444Z,1011.51
2019-01-18T07:42:04.349Z,1011.50
2019-01-18T07:43:06.377Z,1011.56
2019-01-18T07:44:04.347Z,1011.60
2019-01-18T07:45:04.320Z,1011.58
2019-01-18T07:46:04.294Z,1011.70
2019-01-18T07:47:04.248Z,1011.68
2019-01-18T07:48:04.311Z,1011.68
2019-01-18T07:49:04.318Z,1011.61
2019-01-18T07:50:04.270Z,1011.69
2019-01-18T07:51:04.274Z,1011.69
2019-01-18T07:52:04.229Z,1011.77
2019-01-18T07:53:04.182Z,1011.72
2019-01-18T07:54:04.174Z,1011.78
2019-01-18T07:55:04.205Z,1011.83
2019-01-18T07:56:04.202Z,1011.86
2019-01-18T07:57:04.296Z,1011.86
2019-01-18T07:58:04.134Z,1011.92
2019-01-18T07:59:04.118Z,1011.86
2019-01-18T08:00:04.110Z,1011.94
2019-01-18T08:01:04.162Z,1011.97
2019-01-18T08:02:06.252Z,1012.02
2019-01-18T08:03:04.130Z,1012.02
2019-01-18T08:04:08.124Z,1012.00
2019-01-18T08:05:04.126Z,1012.02
2019-01-18T08:06:04.068Z,1012.04
2019-01-18T08:07:06.216Z,1012.11
2019-01-18T08:08:04.089Z,1012.11
2019-01-18T08:09:04.070Z,1012.15
2019-01-18T08:10:12.995Z,1012.16
2019-01-18T08:11:04.016Z,1012.21
2019-01-18T08:12:04.011Z,1012.21
2019-01-18T08:13:08.057Z,1012.27
2019-01-18T08:14:04.028Z,1012.27
2019-01-18T08:15:03.942Z,1012.27
2019-01-18T08:16:03.932Z,1012.37
2019-01-18T08:17:04.061Z,1012.36
2019-01-18T08:18:04.064Z,1012.43
2019-01-18T08:19:03.966Z,1012.43
2019-01-18T08:20:03.890Z,1012.47
2019-01-18T08:21:03.953Z,1012.47
2019-01-18T08:22:05.908Z,1012.51
2019-01-18T08:23:06.011Z,1012.54
2019-01-18T08:24:05.919Z,1012.57
2019-01-18T08:25:03.852Z,1012.54
2019-01-18T08:26:07.912Z,1012.57
2019-01-18T08:27:03.920Z,1012.61
2019-01-18T08:28:03.981Z,1012.62
2019-01-18T08:29:03.903Z,1012.74
2019-01-18T08:30:03.859Z,1012.70
2019-01-18T08:31:03.801Z,1012.69
2019-01-18T08:32:03.808Z,1012.69
2019-01-18T08:33:05.664Z,1012.70
2019-01-18T08:34:05.824Z,1012.75
2019-01-18T08:35:03.822Z,1012.78
2019-01-18T08:36:03.804Z,1012.79
2019-01-18T08:37:03.728Z,1012.84
2019-01-18T08:38:03.732Z,1012.85
2019-01-18T08:39:03.700Z,1012.87
2019-01-18T08:40:03.796Z,1012.92
2019-01-18T08:42:04.775Z,1012.98
2019-01-18T08:43:03.831Z,1012.97
2019-01-18T08:44:03.644Z,1013.03
2019-01-18T08:45:03.634Z,1013.04
2019-01-18T08:46:05.699Z,1013.03
2019-01-18T08:48:04.747Z,1013.00
2019-01-18T08:49:03.672Z,1013.04
2019-01-18T08:50:03.665Z,1013.07
2019-01-18T08:51:03.940Z,1013.03
2019-01-18T08:52:03.566Z,1013.03
2019-01-18T08:53:03.709Z,1013.03
2019-01-18T08:54:03.607Z,1013.08
2019-01-18T08:55:05.611Z,1013.10
2019-01-18T08:56:06.639Z,1013.11
2019-01-18T08:57:03.574Z,1013.13
2019-01-18T08:58:03.522Z,1013.14
2019-01-18T08:59:03.618Z,1013.07
2019-01-18T09:00:03.577Z,1013.15
2019-01-18T09:01:07.600Z,1013.15
2019-01-18T09:02:04.537Z,1013.17
2019-01-18T09:03:03.445Z,1013.23
2019-01-18T09:04:03.450Z,1013.27
2019-01-18T09:05:03.484Z,1013.23
2019-01-18T09:06:03.482Z,1013.23
2019-01-18T09:07:03.468Z,1013.30
2019-01-18T09:08:05.407Z,1013.28
2019-01-18T09:09:03.403Z,1013.23
2019-01-18T09:10:03.392Z,1013.30
2019-01-18T09:11:03.424Z,1013.24
2019-01-18T09:12:03.412Z,1013.25
2019-01-18T09:13:03.416Z,1013.31
2019-01-18T09:14:03.349Z,1013.30
2019-01-18T09:15:04.007Z,1013.31
2019-01-18T09:16:03.314Z,1013.33
2019-01-18T09:17:07.374Z,1013.40
2019-01-18T09:18:04.342Z,1013.39
2019-01-18T09:19:03.429Z,1013.39
2019-01-18T09:20:03.332Z,1013.38
2019-01-18T09:21:03.250Z,1013.42
2019-01-18T09:22:03.300Z,1013.37
2019-01-18T09:23:05.300Z,1013.43
2019-01-18T09:24:03.388Z,1013.49
2019-01-18T09:25:03.306Z,1013.49
2019-01-18T09:26:05.257Z,1013.42
2019-01-18T09:27:03.188Z,1013.51
2019-01-18T09:28:03.196Z,1013.52
2019-01-18T09:29:03.204Z,1013.50
2019-01-18T09:30:03.214Z,1013.54
2019-01-18T09:31:03.224Z,1013.53
2019-01-18T09:33:04.199Z,1013.60
2019-01-18T09:34:03.280Z,1013.65
2019-01-18T09:37:04.187Z,1013.58
2019-01-18T09:38:03.115Z,1013.66
2019-01-18T09:39:03.088Z,1013.60
2019-01-18T09:41:04.196Z,1013.66
2019-01-18T09:42:03.030Z,1013.71
2019-01-18T09:43:03.026Z,1013.69
2019-01-18T09:44:03.056Z,1013.72
2019-01-18T09:45:03.049Z,1013.67
2019-01-18T09:46:03.093Z,1013.66
2019-01-18T09:47:05.046Z,1013.71
2019-01-18T09:49:04.081Z,1013.70
2019-01-18T09:50:03.045Z,1013.76
2019-01-18T09:51:03.012Z,1013.73
2019-01-18T09:52:02.999Z,1013.74
2019-01-18T09:53:02.921Z,1013.75
2019-01-18T09:54:02.909Z,1013.77
2019-01-18T09:55:02.924Z,1013.74
2019-01-18T09:56:02.957Z,1013.78
2019-01-18T09:57:05.940Z,1013.74
2019-01-18T09:58:04.960Z,1013.77
2019-01-18T09:59:02.853Z,1013.74
2019-01-18T10:00:05.608Z,1013.78
2019-01-18T10:01:02.989Z,1013.72
2019-01-18T10:02:05.923Z,1013.81
2019-01-18T10:03:02.886Z,1013.80
2019-01-18T10:04:05.807Z,1013.83
2019-01-18T10:05:02.818Z,1013.80
2019-01-18T10:06:02.844Z,1013.79
2019-01-18T10:07:02.843Z,1013.83
2019-01-18T10:08:04.871Z,1013.79
2019-01-18T10:10:03.851Z,1013.81
2019-01-18T10:11:02.804Z,1013.85
2019-01-18T10:12:06.850Z,1013.84
2019-01-18T10:14:03.825Z,1013.79
2019-01-18T10:16:03.871Z,1013.82
2019-01-18T10:17:02.768Z,1013.79
2019-01-18T10:18:02.740Z,1013.79
2019-01-18T10:19:23.656Z,1013.81
2019-01-18T10:20:02.657Z,1013.83
2019-01-18T10:22:12.217Z,1013.76
2019-01-18T10:23:12.223Z,1013.81
2019-01-18T10:25:13.270Z,1013.84
2019-01-18T10:26:35.280Z,1013.83
2019-01-18T10:27:14.253Z,1013.84
2019-01-18T10:28:12.246Z,1013.80
2019-01-18T10:29:13.204Z,1013.90
2019-01-18T10:30:12.164Z,1013.79
2019-01-18T10:32:39.303Z,1013.86
2019-01-18T10:33:39.212Z,1013.82
2019-01-18T10:34:39.218Z,1013.86
2019-01-18T10:35:39.210Z,1013.80
2019-01-18T10:37:49.101Z,1013.86
2019-01-18T10:38:49.102Z,1013.88
2019-01-18T10:39:49.079Z,1013.91
2019-01-18T10:42:08.435Z,1013.98
2019-01-18T10:43:08.392Z,1013.99
2019-01-18T10:44:08.398Z,1013.99
2019-01-18T10:45:08.415Z,1014.01
2019-01-18T10:48:05.555Z,1014.00
2019-01-18T10:49:05.481Z,1014.03
2019-01-18T10:50:05.501Z,1014.07
2019-01-18T10:53:22.671Z,1014.12
2019-01-18T10:54:22.595Z,1014.15
2019-01-18T10:55:22.583Z,1014.12
2019-01-18T10:56:22.547Z,1014.11
2019-01-18T10:57:22.529Z,1014.11
2019-01-18T10:58:22.525Z,1014.13
2019-01-18T10:59:22.545Z,1014.18
2019-01-18T11:00:22.517Z,1014.15
2019-01-18T11:04:40.899Z,1014.18
2019-01-18T11:05:40.883Z,1014.19
2019-01-18T11:08:09.846Z,1014.20
2019-01-18T11:10:53.119Z,1014.21
2019-01-18T11:11:53.003Z,1014.21
2019-01-18T11:12:53.003Z,1014.24
2019-01-18T11:13:53.081Z,1014.20
2019-01-18T11:16:21.887Z,1014.30
2019-01-18T11:17:21.839Z,1014.27
2019-01-18T11:18:21.827Z,1014.22
2019-01-18T11:21:45.154Z,1014.31
2019-01-18T11:22:45.100Z,1014.35
2019-01-18T11:23:45.081Z,1014.40
2019-01-18T11:27:09.243Z,1014.33
2019-01-18T11:28:09.161Z,1014.36
2019-01-18T11:29:09.170Z,1014.37
2019-01-18T11:31:25.350Z,1014.37
2019-01-18T11:32:25.311Z,1014.35
2019-01-18T11:33:25.261Z,1014.37
2019-01-18T11:36:08.367Z,1014.45
2019-01-18T11:37:05.578Z,1014.43
2019-01-18T11:38:05.543Z,1014.47
2019-01-18T11:40:23.093Z,1014.40
2019-01-18T11:41:23.029Z,1014.46
2019-01-18T11:43:33.911Z,1014.49
2019-01-18T11:44:33.859Z,1014.43
2019-01-18T11:45:33.830Z,1014.50
2019-01-18T11:47:45.163Z,1014.47
2019-01-18T11:48:45.093Z,1014.53
2019-01-18T11:49:45.112Z,1014.50
2019-01-18T11:50:45.083Z,1014.47
2019-01-18T11:51:45.082Z,1014.50
2019-01-18T11:52:45.088Z,1014.52
2019-01-18T11:55:58.209Z,1014.56
2019-01-18T11:56:58.258Z,1014.49
2019-01-18T11:57:58.162Z,1014.51
2019-01-18T11:58:58.191Z,1014.52
2019-01-18T12:01:36.273Z,1014.54
2019-01-18T12:02:35.425Z,1014.58
2019-01-18T12:03:35.359Z,1014.62
2019-01-18T12:04:35.329Z,1014.60
2019-01-18T12:06:45.560Z,1014.64
2019-01-18T12:10:51.226Z,1014.73
2019-01-18T12:13:42.519Z,1014.73
2019-01-18T12:16:12.564Z,1014.77
2019-01-18T12:17:44.024Z,1014.73
2019-01-18T12:18:12.499Z,1014.75
2019-01-18T12:20:24.868Z,1014.78
2019-01-18T12:22:43.350Z,1014.80
2019-01-18T12:27:01.550Z,1014.77
2019-01-18T12:29:24.551Z,1014.74
2019-01-18T12:30:23.689Z,1014.83
2019-01-18T12:33:07.840Z,1014.75
2019-01-18T12:34:07.800Z,1014.77
2019-01-18T12:36:17.936Z,1014.77
2019-01-18T12:39:07.690Z,1014.70
2019-01-18T12:41:59.909Z,1014.73
2019-01-18T12:44:37.975Z,1014.69
2019-01-18T12:47:13.992Z,1014.76
2019-01-18T12:49:42.718Z,1014.74
2019-01-18T12:52:11.311Z,1014.75
2019-01-18T12:54:34.205Z,1014.75
2019-01-18T12:57:08.259Z,1014.73
2019-01-18T12:58:08.191Z,1014.76
2019-01-18T12:59:17.167Z,1014.71
2019-01-18T13:03:28.502Z,1014.76
2019-01-18T13:04:54.716Z,1014.77
2019-01-18T13:06:38.604Z,1014.73
2019-01-18T13:08:48.687Z,1014.82
2019-01-18T13:11:49.821Z,1014.74
2019-01-18T13:14:01.344Z,1014.73
2019-01-18T13:15:04.155Z,1014.76
2019-01-18T13:16:06.305Z,1014.73
2019-01-18T13:17:03.339Z,1014.73
2019-01-18T13:19:02.645Z,1014.73
2019-01-18T13:20:05.003Z,1014.71
2019-01-18T13:22:02.812Z,1014.70
2019-01-18T13:23:03.277Z,1014.68
2019-01-18T13:24:06.822Z,1014.69
2019-01-18T13:25:09.335Z,1014.71
2019-01-18T13:27:02.135Z,1014.72
2019-01-18T13:28:01.122Z,1014.72
2019-01-18T13:30:02.421Z,1014.76
2019-01-18T13:31:03.172Z,1014.82
2019-01-18T13:32:05.173Z,1014.84
2019-01-18T13:33:01.156Z,1014.78
2019-01-18T13:34:03.101Z,1014.84